createdAt,value
2022-08-28T00:00:21.765Z,23.00
2022-08-28T00:03:11.451Z,21.00
2022-08-28T00:05:45.189Z,23.20
2022-08-28T00:08:18.234Z,22.30
2022-08-28T00:10:50.069Z,24.10
2022-08-28T00:13:25.558Z,23.40
2022-08-28T00:16:01.121Z,22.90
2022-08-28T00:18:33.584Z,23.10
2022-08-28T00:21:05.892Z,23.00
2022-08-28T00:23:43.036Z,24.20
2022-08-28T00:26:35.686Z,23.60
2022-08-28T00:29:08.343Z,24.10
2022-08-28T00:31:40.970Z,25.10
2022-08-28T00:34:13.240Z,24.00
2022-08-28T00:36:45.698Z,23.00
2022-08-28T00:41:52.726Z,22.20
2022-08-28T00:44:30.694Z,23.50
2022-08-28T00:47:02.754Z,22.60
2022-08-28T00:49:38.668Z,24.50
2022-08-28T00:52:12.478Z,23.40
2022-08-28T00:54:58.440Z,23.10
2022-08-28T00:57:35.838Z,25.10
2022-08-28T01:00:12.668Z,23.20
2022-08-28T01:02:45.014Z,24.40
2022-08-28T01:07:49.870Z,23.60
2022-08-28T01:10:27.760Z,23.50
2022-08-28T01:13:00.793Z,21.60
2022-08-28T01:15:37.032Z,24.10
2022-08-28T01:18:12.220Z,22.40
2022-08-28T01:20:47.960Z,22.80
2022-08-28T01:23:26.161Z,21.70
2022-08-28T01:26:00.195Z,22.30
2022-08-28T01:28:33.712Z,23.00
2022-08-28T01:31:05.526Z,23.00
2022-08-28T01:33:37.273Z,22.70
2022-08-28T01:36:14.325Z,22.70
2022-08-28T01:38:50.482Z,22.90
2022-08-28T01:41:22.242Z,22.80
2022-08-28T01:43:54.853Z,23.10
2022-08-28T01:46:26.792Z,22.80
2022-08-28T01:48:59.513Z,22.50
2022-08-28T01:51:35.275Z,20.90
2022-08-28T01:54:10.704Z,22.40
2022-08-28T01:56:45.910Z,22.70
2022-08-28T01:59:18.187Z,22.80
2022-08-28T02:01:49.941Z,22.10
2022-08-28T02:04:23.120Z,22.40
2022-08-28T02:07:04.371Z,22.60
2022-08-28T02:09:36.127Z,23.80
2022-08-28T02:12:10.892Z,21.30
2022-08-28T02:14:43.559Z,22.00
2022-08-28T02:17:15.337Z,22.50
2022-08-28T02:19:47.153Z,22.00
2022-08-28T02:22:18.914Z,22.50
2022-08-28T02:24:50.602Z,22.80
2022-08-28T02:27:22.456Z,24.80
2022-08-28T02:29:55.540Z,22.90
2022-08-28T02:34:58.120Z,24.30
2022-08-28T02:37:29.857Z,23.70
2022-08-28T02:40:01.834Z,24.40
2022-08-28T02:42:33.836Z,23.80
2022-08-28T02:45:06.474Z,22.60
2022-08-28T02:47:38.103Z,23.60
2022-08-28T02:50:13.034Z,25.40
2022-08-28T02:52:45.181Z,24.50
2022-08-28T02:55:19.282Z,24.90
2022-08-28T02:57:51.490Z,27.10
2022-08-28T03:00:25.441Z,25.10
2022-08-28T03:02:57.228Z,26.80
2022-08-28T03:05:28.915Z,25.10
2022-08-28T03:08:00.848Z,26.50
2022-08-28T03:10:33.262Z,25.50
2022-08-28T03:13:06.081Z,25.30
2022-08-28T03:15:38.337Z,26.90
2022-08-28T03:18:11.306Z,26.40
2022-08-28T03:20:43.821Z,28.40
2022-08-28T03:23:28.038Z,27.10
2022-08-28T03:26:02.384Z,26.90
2022-08-28T03:28:38.365Z,26.50
2022-08-28T03:31:11.808Z,28.00
2022-08-28T03:33:44.521Z,28.50
2022-08-28T03:36:19.096Z,30.20
2022-08-28T03:38:51.469Z,29.30
2022-08-28T03:41:25.050Z,29.40
2022-08-28T03:43:58.069Z,29.00
2022-08-28T03:46:32.954Z,30.00
2022-08-28T03:49:06.456Z,29.50
2022-08-28T03:51:38.320Z,31.60
2022-08-28T03:54:10.058Z,31.70
2022-08-28T03:56:43.648Z,30.90
2022-08-28T03:59:15.694Z,30.40
2022-08-28T04:01:47.545Z,31.70
2022-08-28T04:04:19.381Z,30.30
2022-08-28T04:06:51.189Z,30.70
2022-08-28T04:09:22.903Z,30.80
2022-08-28T04:11:55.293Z,30.70
2022-08-28T04:14:27.093Z,32.20
2022-08-28T04:17:01.516Z,32.40
2022-08-28T04:19:33.641Z,32.40
2022-08-28T04:22:05.520Z,31.50
2022-08-28T04:24:37.196Z,33.20
2022-08-28T04:27:08.936Z,31.60
2022-08-28T04:29:40.609Z,33.90
2022-08-28T04:32:12.649Z,32.20
2022-08-28T04:34:44.506Z,31.40
2022-08-28T04:37:16.217Z,33.30
2022-08-28T04:39:47.899Z,31.80
2022-08-28T04:42:19.872Z,31.70
2022-08-28T04:44:51.684Z,32.00
2022-08-28T04:47:23.627Z,31.80
2022-08-28T04:49:55.896Z,33.90
2022-08-28T04:52:27.831Z,32.80
2022-08-28T04:54:59.818Z,35.20
2022-08-28T04:57:36.098Z,31.70
2022-08-28T05:00:11.703Z,32.50
2022-08-28T05:02:43.585Z,32.60
2022-08-28T05:05:15.351Z,32.20
2022-08-28T05:07:48.288Z,31.90
2022-08-28T05:10:20.310Z,32.60
2022-08-28T05:12:52.056Z,31.30
2022-08-28T05:15:23.853Z,32.60
2022-08-28T05:17:55.847Z,36.50
2022-08-28T05:20:27.951Z,33.20
2022-08-28T05:22:59.657Z,33.60
2022-08-28T05:25:32.960Z,34.70
2022-08-28T05:28:06.026Z,32.00
2022-08-28T05:30:43.441Z,31.10
2022-08-28T05:33:16.965Z,31.70
2022-08-28T05:35:49.312Z,31.80
2022-08-28T05:38:21.291Z,32.90
2022-08-28T05:40:53.449Z,30.50
2022-08-28T05:43:25.889Z,31.10
2022-08-28T05:46:01.271Z,31.80
2022-08-28T05:48:37.119Z,33.40
2022-08-28T05:51:14.491Z,33.90
2022-08-28T05:53:49.771Z,32.10
2022-08-28T05:56:24.637Z,33.40
2022-08-28T05:58:56.469Z,32.00
2022-08-28T06:01:30.282Z,32.20
2022-08-28T06:04:05.884Z,31.20
2022-08-28T06:06:39.518Z,31.60
2022-08-28T06:09:13.937Z,33.10
2022-08-28T06:11:47.442Z,32.00
2022-08-28T06:14:21.870Z,31.30
2022-08-28T06:16:55.673Z,31.30
2022-08-28T06:19:30.787Z,30.10
2022-08-28T06:22:07.538Z,29.50
2022-08-28T06:24:40.570Z,30.40
2022-08-28T06:27:12.925Z,31.20
2022-08-28T06:29:44.722Z,31.00
2022-08-28T06:32:16.676Z,29.40
2022-08-28T06:34:48.645Z,30.20
2022-08-28T06:37:20.565Z,28.70
2022-08-28T06:39:52.466Z,30.50
2022-08-28T06:42:25.247Z,30.00
2022-08-28T06:44:57.860Z,29.70
2022-08-28T06:47:29.623Z,29.80
2022-08-28T06:50:01.619Z,30.60
2022-08-28T06:52:33.893Z,28.00
2022-08-28T06:55:07.289Z,29.10
2022-08-28T07:00:12.879Z,30.20
2022-08-28T07:02:44.785Z,28.90
2022-08-28T07:05:17.117Z,27.00
2022-08-28T07:07:49.085Z,26.80
2022-08-28T07:10:21.296Z,27.60
2022-08-28T07:12:53.431Z,27.50
2022-08-28T07:15:25.485Z,28.40
2022-08-28T07:17:58.225Z,25.90
2022-08-28T07:20:30.031Z,25.70
2022-08-28T07:23:01.907Z,27.60
2022-08-28T07:25:33.947Z,27.90
2022-08-28T07:28:06.115Z,26.70
2022-08-28T07:30:40.486Z,26.10
2022-08-28T07:33:12.674Z,26.90
2022-08-28T07:35:47.088Z,26.10
2022-08-28T07:38:18.894Z,25.30
2022-08-28T07:40:50.614Z,26.20
2022-08-28T07:43:40.345Z,25.80
2022-08-28T07:46:12.839Z,25.50
2022-08-28T07:48:48.053Z,25.50
2022-08-28T07:51:19.884Z,24.60
2022-08-28T07:53:52.416Z,25.00
2022-08-28T07:56:24.243Z,27.00
2022-08-28T07:58:56.827Z,24.30
2022-08-28T08:01:30.898Z,25.60
2022-08-28T08:04:03.386Z,25.20
2022-08-28T08:06:35.885Z,25.00
2022-08-28T08:09:12.122Z,24.10
2022-08-28T08:11:44.843Z,23.20
2022-08-28T08:14:18.373Z,23.50
2022-08-28T08:16:50.452Z,23.30
2022-08-28T08:19:22.212Z,22.20
2022-08-28T08:21:55.353Z,22.10
2022-08-28T08:24:30.266Z,21.10
2022-08-28T08:27:03.544Z,23.00
2022-08-28T08:29:37.972Z,21.70
2022-08-28T08:32:11.781Z,20.10
2022-08-28T08:34:46.712Z,21.80
2022-08-28T08:37:18.563Z,20.90
2022-08-28T08:39:50.897Z,21.40
2022-08-28T08:42:30.416Z,20.70
2022-08-28T08:45:04.689Z,20.80
2022-08-28T08:47:41.849Z,19.60
2022-08-28T08:50:17.797Z,20.00
2022-08-28T08:53:03.659Z,20.70
2022-08-28T08:55:38.105Z,20.10
2022-08-28T08:58:14.777Z,19.60
2022-08-28T09:00:58.671Z,20.50
2022-08-28T09:03:54.521Z,18.00
2022-08-28T09:06:36.789Z,19.20
2022-08-28T09:09:18.149Z,18.50
2022-08-28T09:11:57.122Z,18.60
2022-08-28T09:14:38.267Z,18.70
2022-08-28T09:17:12.506Z,18.70
2022-08-28T09:19:44.611Z,18.90
2022-08-28T09:22:17.116Z,18.50
2022-08-28T09:24:48.941Z,18.30
2022-08-28T09:27:28.096Z,20.30
2022-08-28T09:30:08.096Z,18.40
2022-08-28T09:32:43.892Z,19.70
2022-08-28T09:35:27.178Z,18.90
2022-08-28T09:38:17.532Z,18.50
2022-08-28T09:41:07.291Z,18.80
2022-08-28T09:43:45.688Z,18.30
2022-08-28T09:46:25.456Z,18.40
2022-08-28T09:49:12.008Z,19.70
2022-08-28T09:51:44.294Z,17.90
2022-08-28T09:54:23.676Z,18.80
2022-08-28T09:56:56.155Z,19.90
2022-08-28T09:59:30.107Z,18.80
2022-08-28T10:02:14.613Z,20.00
2022-08-28T10:04:59.218Z,18.60
2022-08-28T10:07:41.251Z,19.20
2022-08-28T10:10:23.118Z,19.40
2022-08-28T10:13:07.132Z,18.80
2022-08-28T10:15:57.199Z,19.10
2022-08-28T10:18:39.408Z,18.40
2022-08-28T10:21:26.920Z,19.60
2022-08-28T10:27:22.660Z,19.00
2022-08-28T10:30:06.777Z,19.70
2022-08-28T10:33:00.032Z,18.70
2022-08-28T10:35:43.232Z,18.20
2022-08-28T10:38:18.733Z,19.10
2022-08-28T10:40:56.855Z,18.40
2022-08-28T10:43:34.825Z,17.80
2022-08-28T10:46:13.574Z,19.00
2022-08-28T10:48:50.659Z,20.90
2022-08-28T10:51:35.212Z,18.00
2022-08-28T10:54:23.121Z,19.30
2022-08-28T10:56:59.536Z,18.00
2022-08-28T10:59:33.772Z,18.20
2022-08-28T11:02:16.724Z,19.50
2022-08-28T11:04:49.363Z,17.90
2022-08-28T11:07:30.405Z,20.20
2022-08-28T11:10:21.645Z,19.40
2022-08-28T11:12:54.465Z,17.10
2022-08-28T11:15:50.271Z,17.40
2022-08-28T11:19:01.999Z,17.60
2022-08-28T11:21:43.206Z,18.90
2022-08-28T11:24:29.408Z,18.30
2022-08-28T11:27:16.875Z,17.20
2022-08-28T11:30:16.269Z,18.00
2022-08-28T11:33:03.365Z,18.20
2022-08-28T11:35:47.159Z,18.20
2022-08-28T11:39:02.959Z,16.90
2022-08-28T11:41:38.414Z,15.80
2022-08-28T11:44:41.455Z,16.60
2022-08-28T11:47:39.510Z,17.10
2022-08-28T11:50:34.264Z,16.70
2022-08-28T11:53:34.860Z,14.90
2022-08-28T11:56:37.141Z,15.80
2022-08-28T11:59:24.916Z,16.40
2022-08-28T12:02:43.273Z,15.80
2022-08-28T12:05:42.721Z,16.70
2022-08-28T12:09:09.101Z,15.40
2022-08-28T12:11:57.666Z,16.20
2022-08-28T12:15:03.877Z,15.20
2022-08-28T12:17:57.157Z,15.10
2022-08-28T12:20:41.047Z,15.20
2022-08-28T12:23:38.426Z,13.20
2022-08-28T12:26:19.118Z,13.50
2022-08-28T12:28:53.787Z,12.20
2022-08-28T12:32:11.357Z,12.50
2022-08-28T12:34:51.067Z,13.00
2022-08-28T12:37:39.423Z,13.00
2022-08-28T12:40:29.493Z,12.10
2022-08-28T12:43:05.808Z,12.20
2022-08-28T12:45:41.839Z,11.10
2022-08-28T12:48:22.381Z,11.80
2022-08-28T12:51:03.255Z,11.20
2022-08-28T12:53:45.190Z,10.60
2022-08-28T12:56:20.006Z,12.00
2022-08-28T12:58:52.037Z,12.00
2022-08-28T13:01:32.527Z,10.60
2022-08-28T13:04:19.074Z,11.90
2022-08-28T13:06:58.281Z,12.20
2022-08-28T13:09:35.369Z,12.10
2022-08-28T13:12:07.869Z,12.90
2022-08-28T13:14:43.186Z,11.50
2022-08-28T13:17:17.447Z,11.80
2022-08-28T13:20:05.407Z,11.70
2022-08-28T13:22:40.455Z,12.10
2022-08-28T13:25:21.017Z,11.70
2022-08-28T13:28:01.458Z,10.90
2022-08-28T13:30:35.567Z,11.40
2022-08-28T13:33:22.903Z,10.60
2022-08-28T13:35:56.615Z,10.90
2022-08-28T13:38:28.930Z,10.10
2022-08-28T13:41:06.163Z,11.40
2022-08-28T13:43:48.585Z,10.90
2022-08-28T13:46:20.963Z,12.20
2022-08-28T13:48:53.493Z,10.70
2022-08-28T13:51:26.916Z,10.50
2022-08-28T13:53:59.097Z,11.50
2022-08-28T13:56:33.153Z,11.30
2022-08-28T13:59:05.434Z,10.60
2022-08-28T14:01:57.132Z,9.90
2022-08-28T14:04:28.918Z,10.20
2022-08-28T14:07:00.629Z,9.10
2022-08-28T14:09:32.492Z,9.10
2022-08-28T14:12:06.056Z,9.00
2022-08-28T14:14:41.480Z,9.10
2022-08-28T14:17:14.178Z,8.90
2022-08-28T14:22:17.516Z,8.00
2022-08-28T14:24:49.472Z,8.10
2022-08-28T14:27:22.129Z,7.50
2022-08-28T14:29:54.463Z,7.30
2022-08-28T14:32:26.145Z,7.80
2022-08-28T14:34:58.296Z,6.70
2022-08-28T14:37:30.694Z,6.50
2022-08-28T14:40:03.206Z,7.20
2022-08-28T14:45:07.101Z,6.80
2022-08-28T14:47:39.660Z,6.90
2022-08-28T14:52:43.941Z,6.80
2022-08-28T14:55:18.641Z,6.20
2022-08-28T14:57:51.785Z,6.70
2022-08-28T15:02:59.829Z,5.90
2022-08-28T15:05:32.240Z,6.60
2022-08-28T15:08:07.839Z,5.80
2022-08-28T15:10:42.851Z,6.00
2022-08-28T15:13:15.830Z,5.60
2022-08-28T15:15:48.580Z,5.70
2022-08-28T15:18:20.976Z,5.80
2022-08-28T15:20:53.833Z,5.30
2022-08-28T15:23:25.886Z,5.10
2022-08-28T15:25:57.872Z,5.80
2022-08-28T15:28:29.946Z,5.90
2022-08-28T15:31:01.737Z,5.40
2022-08-28T15:33:33.753Z,5.70
2022-08-28T15:36:06.567Z,5.30
2022-08-28T15:38:52.217Z,5.50
2022-08-28T15:41:27.550Z,5.40
2022-08-28T15:44:01.776Z,5.70
2022-08-28T15:46:36.035Z,5.20
2022-08-28T15:49:09.247Z,5.50
2022-08-28T15:51:41.392Z,5.30
2022-08-28T15:54:13.746Z,5.50
2022-08-28T15:56:45.664Z,6.00
2022-08-28T15:59:20.973Z,5.20
2022-08-28T16:01:54.421Z,4.90
2022-08-28T16:04:26.599Z,4.70
2022-08-28T16:07:00.675Z,5.20
2022-08-28T16:09:32.852Z,5.30
2022-08-28T16:12:04.885Z,4.90
2022-08-28T16:14:36.708Z,4.80
2022-08-28T16:17:10.751Z,5.40
2022-08-28T16:19:44.281Z,5.00
2022-08-28T16:22:17.225Z,4.30
2022-08-28T16:24:50.799Z,4.50
2022-08-28T16:27:22.503Z,4.70
2022-08-28T16:29:54.853Z,4.40
2022-08-28T16:32:26.925Z,5.40
2022-08-28T16:34:59.478Z,5.00
2022-08-28T16:37:39.570Z,5.10
2022-08-28T16:40:14.916Z,4.80
2022-08-28T16:42:51.445Z,4.50
2022-08-28T16:45:24.512Z,6.60
2022-08-28T16:47:56.439Z,5.00
2022-08-28T16:50:31.708Z,4.10
2022-08-28T16:53:06.788Z,4.50
2022-08-28T16:55:40.491Z,4.30
2022-08-28T16:58:16.683Z,4.10
2022-08-28T17:00:52.764Z,4.20
2022-08-28T17:03:26.967Z,5.00
2022-08-28T17:06:03.145Z,4.70
2022-08-28T17:08:35.087Z,4.40
2022-08-28T17:11:07.700Z,4.20
2022-08-28T17:16:10.624Z,4.20
2022-08-28T17:21:42.809Z,4.90
2022-08-28T17:24:14.632Z,5.60
2022-08-28T17:26:47.004Z,4.70
2022-08-28T17:29:18.963Z,4.60
2022-08-28T17:31:51.004Z,4.20
2022-08-28T17:34:25.754Z,5.20
2022-08-28T17:37:01.483Z,4.80
2022-08-28T17:39:33.673Z,5.00
2022-08-28T17:42:07.474Z,4.40
2022-08-28T17:44:40.079Z,4.40
2022-08-28T17:47:12.390Z,5.50
2022-08-28T17:49:44.473Z,5.10
2022-08-28T17:52:16.416Z,4.30
2022-08-28T17:54:48.172Z,4.00
2022-08-28T17:57:19.993Z,4.60
2022-08-28T17:59:51.877Z,4.00
2022-08-28T18:02:23.649Z,4.40
2022-08-28T18:04:55.694Z,4.60
2022-08-28T18:07:27.526Z,4.40
2022-08-28T18:09:59.595Z,4.70
2022-08-28T18:12:31.534Z,5.50
2022-08-28T18:15:04.788Z,5.00
2022-08-28T18:17:38.394Z,4.90
2022-08-28T18:20:12.555Z,5.00
2022-08-28T18:22:44.501Z,4.50
2022-08-28T18:25:31.343Z,4.60
2022-08-28T18:28:03.950Z,5.10
2022-08-28T18:30:36.885Z,4.80
2022-08-28T18:33:25.249Z,5.20
2022-08-28T18:35:57.089Z,5.70
2022-08-28T18:38:34.857Z,5.00
2022-08-28T18:41:08.335Z,6.10
2022-08-28T18:43:40.806Z,5.70
2022-08-28T18:46:14.354Z,5.00
2022-08-28T18:48:47.177Z,6.30
2022-08-28T18:51:21.234Z,7.40
2022-08-28T18:53:53.582Z,5.40
2022-08-28T18:56:25.237Z,6.20
2022-08-28T18:59:03.833Z,6.30
2022-08-28T19:01:35.996Z,6.10
2022-08-28T19:06:38.481Z,7.00
2022-08-28T19:09:11.646Z,6.40
2022-08-28T19:11:52.300Z,6.50
2022-08-28T19:14:24.409Z,6.80
2022-08-28T19:16:56.977Z,6.80
2022-08-28T19:19:29.387Z,7.10
2022-08-28T19:22:01.957Z,6.60
2022-08-28T19:27:06.144Z,8.20
2022-08-28T19:29:38.130Z,7.40
2022-08-28T19:32:10.681Z,7.60
2022-08-28T19:34:43.667Z,6.90
2022-08-28T19:37:16.449Z,7.70
2022-08-28T19:42:29.020Z,8.20
2022-08-28T19:47:35.756Z,7.50
2022-08-28T19:50:10.055Z,8.00
2022-08-28T19:52:43.295Z,7.10
2022-08-28T19:55:19.193Z,7.60
2022-08-28T19:57:51.312Z,8.10
2022-08-28T20:00:25.280Z,7.50
2022-08-28T20:02:57.801Z,8.10
2022-08-28T20:05:29.945Z,8.00
2022-08-28T20:08:02.064Z,8.30
2022-08-28T20:10:33.872Z,8.30
2022-08-28T20:13:05.632Z,9.10
2022-08-28T20:15:37.583Z,8.40
2022-08-28T20:18:09.808Z,8.70
2022-08-28T20:20:44.517Z,8.90
2022-08-28T20:23:16.911Z,8.00
2022-08-28T20:25:51.730Z,8.60
2022-08-28T20:28:23.356Z,8.70
2022-08-28T20:30:55.078Z,8.60
2022-08-28T20:33:27.117Z,8.40
2022-08-28T20:36:04.657Z,8.30
2022-08-28T20:38:37.921Z,7.60
2022-08-28T20:41:12.552Z,8.20
2022-08-28T20:43:46.347Z,8.20
2022-08-28T20:46:19.840Z,7.70
2022-08-28T20:48:51.832Z,7.30
2022-08-28T20:51:45.521Z,8.30
2022-08-28T20:54:17.312Z,8.00
2022-08-28T20:56:49.152Z,8.10
2022-08-28T20:59:22.427Z,8.50
2022-08-28T21:01:55.469Z,8.00
2022-08-28T21:04:28.502Z,8.10
2022-08-28T21:07:00.730Z,8.20
2022-08-28T21:09:35.865Z,8.00
2022-08-28T21:12:24.706Z,7.90
2022-08-28T21:14:57.039Z,7.80
2022-08-28T21:17:30.682Z,8.10
2022-08-28T21:20:08.317Z,8.20
2022-08-28T21:22:40.773Z,8.90
2022-08-28T21:25:15.401Z,8.50
2022-08-28T21:27:47.931Z,8.00
2022-08-28T21:30:21.986Z,8.10
2022-08-28T21:32:54.359Z,8.60
2022-08-28T21:35:26.119Z,8.10
2022-08-28T21:37:57.828Z,8.50
2022-08-28T21:40:29.528Z,7.60
2022-08-28T21:43:01.186Z,8.10
2022-08-28T21:45:32.911Z,8.10
2022-08-28T21:48:05.121Z,7.90
2022-08-28T21:50:36.853Z,7.60
2022-08-28T21:53:08.618Z,8.50
2022-08-28T21:55:40.861Z,7.90
2022-08-28T21:58:12.670Z,8.80
2022-08-28T22:00:49.677Z,8.20
2022-08-28T22:03:22.586Z,9.20
2022-08-28T22:05:55.511Z,8.30
2022-08-28T22:08:28.644Z,8.80
2022-08-28T22:11:00.372Z,9.40
2022-08-28T22:13:32.235Z,9.50
2022-08-28T22:16:04.545Z,9.10
2022-08-28T22:18:36.639Z,10.80
2022-08-28T22:21:29.294Z,9.00
2022-08-28T22:24:01.448Z,9.30
2022-08-28T22:26:33.305Z,9.80
2022-08-28T22:29:05.860Z,9.10
2022-08-28T22:34:13.038Z,9.00
2022-08-28T22:36:44.705Z,9.00
2022-08-28T22:39:16.473Z,9.40
2022-08-28T22:41:48.399Z,9.40
2022-08-28T22:44:22.003Z,8.90
2022-08-28T22:46:53.740Z,9.80
2022-08-28T22:49:26.184Z,9.30
2022-08-28T22:51:58.282Z,8.70
2022-08-28T22:54:30.302Z,10.10
2022-08-28T22:57:02.081Z,9.30
2022-08-28T22:59:33.877Z,9.80
2022-08-28T23:02:06.577Z,8.40
2022-08-28T23:07:08.533Z,9.30
2022-08-28T23:09:40.516Z,9.60
2022-08-28T23:12:12.430Z,9.70
2022-08-28T23:14:48.252Z,9.00
2022-08-28T23:17:21.226Z,9.70
2022-08-28T23:19:52.919Z,9.60
2022-08-28T23:22:24.729Z,9.80
2022-08-28T23:24:56.370Z,11.80
2022-08-28T23:27:36.281Z,9.40
2022-08-28T23:30:10.465Z,9.40
2022-08-28T23:32:42.296Z,9.20
2022-08-28T23:35:16.518Z,9.10
2022-08-28T23:37:51.982Z,10.30
2022-08-28T23:40:28.147Z,9.90
2022-08-28T23:43:02.881Z,9.40
2022-08-28T23:45:35.131Z,9.90
2022-08-28T23:48:07.264Z,11.60
2022-08-28T23:50:40.854Z,10.30
2022-08-28T23:53:13.122Z,10.50
2022-08-28T23:55:44.801Z,10.80
2022-08-28T23:58:16.765Z,10.80
